createdAt,value
2019-04-04T00:02:01.219Z,15.55
2019-04-04T00:04:29.194Z,15.43
2019-04-04T00:06:58.126Z,17.25
2019-04-04T00:09:26.744Z,15.50
2019-04-04T00:11:54.650Z,16.27
2019-04-04T00:14:22.813Z,15.60
2019-04-04T00:16:50.701Z,15.90
2019-04-04T00:19:18.584Z,20.10
2019-04-04T00:21:46.518Z,15.72
2019-04-04T00:24:15.989Z,16.70
2019-04-04T00:26:43.978Z,15.45
2019-04-04T00:29:11.938Z,16.93
2019-04-04T00:31:41.883Z,16.52
2019-04-04T00:34:09.484Z,17.80
2019-04-04T00:36:37.458Z,16.35
2019-04-04T00:39:09.076Z,16.65
2019-04-04T00:41:36.457Z,16.52
2019-04-04T00:44:04.378Z,16.23
2019-04-04T00:46:34.151Z,17.90
2019-04-04T00:49:04.585Z,16.32
2019-04-04T00:51:31.677Z,17.55
2019-04-04T00:53:59.546Z,16.42
2019-04-04T00:56:31.195Z,16.62
2019-04-04T00:58:59.046Z,16.85
2019-04-04T01:01:27.150Z,17.20
2019-04-04T01:03:55.376Z,15.85
2019-04-04T01:06:23.223Z,17.10
2019-04-04T01:08:56.045Z,16.30
2019-04-04T01:11:24.295Z,16.20
2019-04-04T01:13:52.164Z,16.42
2019-04-04T01:16:20.013Z,16.67
2019-04-04T01:18:47.926Z,17.10
2019-04-04T01:21:15.891Z,17.30
2019-04-04T01:23:43.757Z,16.93
2019-04-04T01:26:11.645Z,17.15
2019-04-04T01:28:39.682Z,18.32
2019-04-04T01:31:07.632Z,18.00
2019-04-04T01:33:36.602Z,17.25
2019-04-04T01:36:04.461Z,16.37
2019-04-04T01:38:32.420Z,19.00
2019-04-04T01:41:04.109Z,18.40
2019-04-04T01:43:31.169Z,16.97
2019-04-04T01:45:59.006Z,17.73
2019-04-04T01:48:26.941Z,18.37
2019-04-04T01:50:55.390Z,17.32
2019-04-04T01:53:23.328Z,17.85
2019-04-04T01:55:52.220Z,17.95
2019-04-04T01:58:20.530Z,19.50
2019-04-04T02:00:51.986Z,17.67
2019-04-04T02:03:22.423Z,18.35
2019-04-04T02:05:51.781Z,16.90
2019-04-04T02:08:19.701Z,17.55
2019-04-04T02:10:47.565Z,17.60
2019-04-04T02:13:15.489Z,17.30
2019-04-04T02:15:45.217Z,18.05
2019-04-04T02:18:13.355Z,17.48
2019-04-04T02:20:41.215Z,18.75
2019-04-04T02:23:10.144Z,18.42
2019-04-04T02:25:39.545Z,18.70
2019-04-04T02:28:08.935Z,22.30
2019-04-04T02:30:37.725Z,17.55
2019-04-04T02:33:05.772Z,18.42
2019-04-04T02:35:33.654Z,18.32
2019-04-04T02:38:01.628Z,19.23
2019-04-04T02:40:29.504Z,19.02
2019-04-04T02:42:58.042Z,19.85
2019-04-04T02:45:28.340Z,19.25
2019-04-04T02:47:56.174Z,19.80
2019-04-04T02:50:24.101Z,20.85
2019-04-04T02:52:51.959Z,19.85
2019-04-04T02:55:19.832Z,19.62
2019-04-04T02:57:50.094Z,19.12
2019-04-04T03:00:18.059Z,19.85
2019-04-04T03:02:45.964Z,20.17
2019-04-04T03:05:13.867Z,19.25
2019-04-04T03:07:52.280Z,18.50
2019-04-04T03:10:20.199Z,17.65
2019-04-04T03:12:48.154Z,17.62
2019-04-04T03:15:16.071Z,19.07
2019-04-04T03:17:45.091Z,17.48
2019-04-04T03:20:16.346Z,20.12
2019-04-04T03:22:47.627Z,20.68
2019-04-04T03:25:16.550Z,20.95
2019-04-04T03:27:44.401Z,19.10
2019-04-04T03:30:14.525Z,19.02
2019-04-04T03:32:41.977Z,19.57
2019-04-04T03:35:09.904Z,20.37
2019-04-04T03:37:40.435Z,19.82
2019-04-04T03:40:07.531Z,20.27
2019-04-04T03:42:35.418Z,20.17
2019-04-04T03:45:06.914Z,19.45
2019-04-04T03:47:34.762Z,19.12
2019-04-04T03:50:02.865Z,21.07
2019-04-04T03:52:30.781Z,18.75
2019-04-04T03:54:59.633Z,21.95
2019-04-04T03:57:27.502Z,20.70
2019-04-04T03:59:55.373Z,22.58
2019-04-04T04:02:23.303Z,20.25
2019-04-04T04:04:51.183Z,20.85
2019-04-04T04:07:23.247Z,20.20
2019-04-04T04:09:51.086Z,19.87
2019-04-04T04:12:21.074Z,19.65
2019-04-04T04:14:53.719Z,20.30
2019-04-04T04:17:20.690Z,22.02
2019-04-04T04:19:48.542Z,21.65
2019-04-04T04:22:19.538Z,20.37
2019-04-04T04:24:47.499Z,19.32
2019-04-04T04:27:15.750Z,20.27
2019-04-04T04:29:44.967Z,21.23
2019-04-04T04:32:12.839Z,19.75
2019-04-04T04:34:43.112Z,20.48
2019-04-04T04:37:13.089Z,20.20
2019-04-04T04:39:41.479Z,20.77
2019-04-04T04:42:09.941Z,20.10
2019-04-04T04:44:38.902Z,21.42
2019-04-04T04:47:07.099Z,21.82
2019-04-04T04:49:35.741Z,20.50
2019-04-04T04:52:04.419Z,18.87
2019-04-04T04:54:32.298Z,19.40
2019-04-04T04:57:04.072Z,22.60
2019-04-04T04:59:32.225Z,24.65
2019-04-04T05:02:00.283Z,25.37
2019-04-04T05:04:28.863Z,22.35
2019-04-04T05:06:56.949Z,22.13
2019-04-04T05:09:24.812Z,21.68
2019-04-04T05:11:53.780Z,23.67
2019-04-04T05:14:21.777Z,24.75
2019-04-04T05:16:49.829Z,23.73
2019-04-04T05:19:18.990Z,23.22
2019-04-04T05:21:47.551Z,21.10
2019-04-04T05:24:16.066Z,22.90
2019-04-04T05:26:45.338Z,20.50
2019-04-04T05:29:14.095Z,20.97
2019-04-04T05:31:42.241Z,22.85
2019-04-04T05:34:10.491Z,21.97
2019-04-04T05:36:38.721Z,22.50
2019-04-04T05:39:07.409Z,20.55
2019-04-04T05:41:37.350Z,19.50
2019-04-04T05:44:09.019Z,22.30
2019-04-04T05:46:35.971Z,22.42
2019-04-04T05:49:07.810Z,20.90
2019-04-04T05:51:36.089Z,22.15
2019-04-04T05:54:03.010Z,22.10
2019-04-04T05:56:30.848Z,23.15
2019-04-04T05:58:58.741Z,21.77
2019-04-04T06:01:26.638Z,23.47
2019-04-04T06:03:54.522Z,22.32
2019-04-04T06:06:22.389Z,24.25
2019-04-04T06:08:50.283Z,23.00
2019-04-04T06:11:20.924Z,23.83
2019-04-04T06:13:47.757Z,21.68
2019-04-04T06:16:15.865Z,21.75
2019-04-04T06:18:43.706Z,23.15
2019-04-04T06:21:11.614Z,23.22
2019-04-04T06:23:39.442Z,23.32
2019-04-04T06:26:07.737Z,25.35
2019-04-04T06:28:35.657Z,23.55
2019-04-04T06:31:03.539Z,25.35
2019-04-04T06:33:34.930Z,21.48
2019-04-04T06:36:00.998Z,22.65
2019-04-04T06:38:28.842Z,25.32
2019-04-04T06:40:56.765Z,25.68
2019-04-04T06:43:24.659Z,24.85
2019-04-04T06:45:52.554Z,24.87
2019-04-04T06:48:20.396Z,24.02
2019-04-04T06:50:48.282Z,24.40
2019-04-04T06:53:16.117Z,24.47
2019-04-04T06:55:44.002Z,24.52
2019-04-04T06:58:11.866Z,24.40
2019-04-04T07:00:42.005Z,22.98
2019-04-04T07:03:09.305Z,25.70
2019-04-04T07:05:38.853Z,23.30
2019-04-04T07:08:06.729Z,23.60
2019-04-04T07:10:34.669Z,25.97
2019-04-04T07:13:20.227Z,24.37
2019-04-04T07:15:32.999Z,25.72
2019-04-04T07:18:00.883Z,26.02
2019-04-04T07:20:28.740Z,25.48
2019-04-04T07:22:56.711Z,25.65
2019-04-04T07:25:24.598Z,23.70
2019-04-04T07:27:52.505Z,24.10
2019-04-04T07:30:20.591Z,25.80
2019-04-04T07:32:48.469Z,26.20
2019-04-04T07:35:17.260Z,26.12
2019-04-04T07:37:45.585Z,29.18
2019-04-04T07:40:13.542Z,26.82
2019-04-04T07:42:41.422Z,23.95
2019-04-04T07:45:09.250Z,29.07
2019-04-04T07:47:37.134Z,26.68
2019-04-04T07:50:05.322Z,26.60
2019-04-04T07:52:33.670Z,27.37
2019-04-04T07:55:01.591Z,28.07
2019-04-04T07:57:30.194Z,26.42
2019-04-04T07:59:58.399Z,26.55
2019-04-04T08:02:26.213Z,26.15
2019-04-04T08:04:54.047Z,29.02
2019-04-04T08:07:22.077Z,28.38
2019-04-04T08:09:49.942Z,25.00
2019-04-04T08:12:17.769Z,28.65
2019-04-04T08:14:45.723Z,25.48
2019-04-04T08:17:13.573Z,28.25
2019-04-04T08:19:41.441Z,26.00
2019-04-04T08:22:09.390Z,29.27
2019-04-04T08:24:37.285Z,27.35
2019-04-04T08:27:05.106Z,25.60
2019-04-04T08:29:32.979Z,24.80
2019-04-04T08:32:00.810Z,22.82
2019-04-04T08:34:28.690Z,25.35
2019-04-04T08:36:56.629Z,26.02
2019-04-04T08:39:24.504Z,26.45
2019-04-04T08:41:52.600Z,25.75
2019-04-04T08:44:20.776Z,28.70
2019-04-04T08:46:48.585Z,25.72
2019-04-04T08:49:16.462Z,27.75
2019-04-04T08:51:44.339Z,25.12
2019-04-04T08:54:12.160Z,27.17
2019-04-04T08:56:40.051Z,26.65
2019-04-04T08:59:07.891Z,29.65
2019-04-04T09:01:35.770Z,29.77
2019-04-04T09:04:03.602Z,30.88
2019-04-04T09:06:31.526Z,28.50
2019-04-04T09:08:59.444Z,30.05
2019-04-04T09:11:27.690Z,30.02
2019-04-04T09:13:55.577Z,30.15
2019-04-04T09:16:23.477Z,29.45
2019-04-04T09:18:51.330Z,31.60
2019-04-04T09:21:19.263Z,34.40
2019-04-04T09:23:47.183Z,34.38
2019-04-04T09:26:15.058Z,34.27
2019-04-04T09:28:42.932Z,31.68
2019-04-04T09:31:10.798Z,36.60
2019-04-04T09:33:38.634Z,31.25
2019-04-04T09:36:06.554Z,32.73
2019-04-04T09:38:34.425Z,32.95
2019-04-04T09:41:02.508Z,30.35
2019-04-04T09:43:30.569Z,31.95
2019-04-04T09:45:58.528Z,33.33
2019-04-04T09:48:26.474Z,30.60
2019-04-04T09:50:54.341Z,30.52
2019-04-04T09:53:22.265Z,31.93
2019-04-04T09:55:50.156Z,31.68
2019-04-04T09:58:17.998Z,33.55
2019-04-04T10:00:47.069Z,32.35
2019-04-04T10:03:14.949Z,35.08
2019-04-04T10:05:42.852Z,39.65
2019-04-04T10:08:10.786Z,35.00
2019-04-04T10:10:38.668Z,32.50
2019-04-04T10:13:06.550Z,37.90
2019-04-04T10:15:34.755Z,36.28
2019-04-04T10:18:02.701Z,32.73
2019-04-04T10:20:30.580Z,35.23
2019-04-04T10:22:58.515Z,33.20
2019-04-04T10:25:26.363Z,32.25
2019-04-04T10:27:54.248Z,35.73
2019-04-04T10:30:22.144Z,31.85
2019-04-04T10:32:50.047Z,37.28
2019-04-04T10:35:17.893Z,36.42
2019-04-04T10:37:45.757Z,45.05
2019-04-04T10:40:13.697Z,36.80
2019-04-04T10:42:41.582Z,34.70
2019-04-04T10:45:09.491Z,33.73
2019-04-04T10:47:37.389Z,32.08
2019-04-04T10:50:05.378Z,33.65
2019-04-04T10:52:33.270Z,34.13
2019-04-04T10:55:01.604Z,32.95
2019-04-04T10:57:29.684Z,36.25
2019-04-04T10:59:57.573Z,35.63
2019-04-04T11:02:25.445Z,37.00
2019-04-04T11:04:53.308Z,32.53
2019-04-04T11:07:21.133Z,31.68
2019-04-04T11:09:49.021Z,30.12
2019-04-04T11:12:16.839Z,33.05
2019-04-04T11:14:44.779Z,39.73
2019-04-04T11:17:12.670Z,35.38
2019-04-04T11:19:43.270Z,37.08
2019-04-04T11:22:10.116Z,36.75
2019-04-04T11:24:38.189Z,36.50
2019-04-04T11:27:06.281Z,33.83
2019-04-04T11:29:34.344Z,34.85
2019-04-04T11:32:03.633Z,32.78
2019-04-04T11:34:31.556Z,31.48
2019-04-04T11:36:59.376Z,35.35
2019-04-04T11:39:27.330Z,35.75
2019-04-04T11:41:55.191Z,31.15
2019-04-04T11:44:23.036Z,30.70
2019-04-04T11:46:50.902Z,34.70
2019-04-04T11:49:18.736Z,33.95
2019-04-04T11:51:46.593Z,35.10
2019-04-04T11:54:14.530Z,36.88
2019-04-04T11:56:42.431Z,35.25
2019-04-04T11:59:10.285Z,39.48
2019-04-04T12:01:40.153Z,31.80
2019-04-04T12:04:08.008Z,36.38
2019-04-04T12:06:35.904Z,32.28
2019-04-04T12:09:04.967Z,32.35
2019-04-04T12:11:32.842Z,30.25
2019-04-04T12:14:00.697Z,29.72
2019-04-04T12:16:28.605Z,30.88
2019-04-04T12:18:56.470Z,30.97
2019-04-04T12:21:24.417Z,32.25
2019-04-04T12:23:52.260Z,33.25
2019-04-04T12:26:20.133Z,31.68
2019-04-04T12:28:48.006Z,32.45
2019-04-04T12:31:15.874Z,29.80
2019-04-04T12:33:44.023Z,34.58
2019-04-04T12:36:23.816Z,29.42
2019-04-04T12:38:41.491Z,33.15
2019-04-04T12:41:09.398Z,31.15
2019-04-04T12:43:37.402Z,30.65
2019-04-04T12:46:05.334Z,29.55
2019-04-04T12:48:33.208Z,34.88
2019-04-04T12:51:01.138Z,27.70
2019-04-04T12:53:29.038Z,32.08
2019-04-04T12:55:56.925Z,28.32
2019-04-04T12:58:24.821Z,30.57
2019-04-04T13:00:52.694Z,29.85
2019-04-04T13:03:22.430Z,31.68
2019-04-04T13:05:50.166Z,30.72
2019-04-04T13:08:18.076Z,29.87
2019-04-04T13:10:45.893Z,28.62
2019-04-04T13:13:13.760Z,27.62
2019-04-04T13:15:41.703Z,28.87
2019-04-04T13:18:09.631Z,29.48
2019-04-04T13:20:37.554Z,30.55
2019-04-04T13:23:05.485Z,33.95
2019-04-04T13:25:33.338Z,31.07
2019-04-04T13:28:01.207Z,33.00
2019-04-04T13:30:29.048Z,35.15
2019-04-04T13:32:56.921Z,33.63
2019-04-04T13:35:24.766Z,29.90
2019-04-04T13:37:52.602Z,30.48
2019-04-04T13:40:20.432Z,29.87
2019-04-04T13:42:48.522Z,32.70
2019-04-04T13:45:16.661Z,34.23
2019-04-04T13:47:44.629Z,33.73
2019-04-04T13:50:12.925Z,34.23
2019-04-04T13:52:40.872Z,31.00
2019-04-04T13:55:08.934Z,29.85
2019-04-04T13:57:39.167Z,29.75
2019-04-04T14:00:07.358Z,29.57
2019-04-04T14:02:35.216Z,30.90
2019-04-04T14:05:09.704Z,31.33
2019-04-04T14:07:32.722Z,30.48
2019-04-04T14:10:00.622Z,29.35
2019-04-04T14:12:29.405Z,30.35
2019-04-04T14:14:57.555Z,29.95
2019-04-04T14:17:25.526Z,29.42
2019-04-04T14:19:53.439Z,27.30
2019-04-04T14:22:21.290Z,28.75
2019-04-04T14:24:49.158Z,29.70
2019-04-04T14:27:17.006Z,31.25
2019-04-04T14:29:44.941Z,28.65
2019-04-04T14:32:12.791Z,28.55
2019-04-04T14:34:40.707Z,27.82
2019-04-04T14:37:08.658Z,29.80
2019-04-04T14:39:36.552Z,28.02
2019-04-04T14:42:04.437Z,27.00
2019-04-04T14:44:32.299Z,28.62
2019-04-04T14:47:00.192Z,27.82
2019-04-04T14:49:28.093Z,26.75
2019-04-04T14:51:55.986Z,30.90
2019-04-04T14:54:23.877Z,28.40
2019-04-04T14:56:51.803Z,30.48
2019-04-04T14:59:19.685Z,24.72
2019-04-04T15:01:47.602Z,26.40
2019-04-04T15:04:15.490Z,27.10
2019-04-04T15:06:43.403Z,22.93
2019-04-04T15:09:11.293Z,22.52
2019-04-04T15:11:39.555Z,25.85
2019-04-04T15:14:07.438Z,23.15
2019-04-04T15:16:35.352Z,24.10
2019-04-04T15:19:03.213Z,24.77
2019-04-04T15:21:31.127Z,23.80
2019-04-04T15:23:59.058Z,24.00
2019-04-04T15:26:26.950Z,23.67
2019-04-04T15:28:54.882Z,23.92
2019-04-04T15:31:22.770Z,25.57
2019-04-04T15:33:50.749Z,22.75
2019-04-04T15:36:18.633Z,26.27
2019-04-04T15:38:46.630Z,23.85
2019-04-04T15:41:14.543Z,26.00
2019-04-04T15:43:42.434Z,25.05
2019-04-04T15:46:11.588Z,25.43
2019-04-04T15:48:39.676Z,26.48
2019-04-04T15:51:07.660Z,24.57
2019-04-04T15:53:35.589Z,25.68
2019-04-04T15:56:03.487Z,23.75
2019-04-04T15:58:31.419Z,26.87
2019-04-04T16:00:59.754Z,26.40
2019-04-04T16:03:27.650Z,28.32
2019-04-04T16:05:55.539Z,25.52
2019-04-04T16:08:23.535Z,25.32
2019-04-04T16:10:51.434Z,27.58
2019-04-04T16:13:19.407Z,31.05
2019-04-04T16:15:47.298Z,27.35
2019-04-04T16:18:15.364Z,28.05
2019-04-04T16:20:43.218Z,30.10
2019-04-04T16:23:11.134Z,26.12
2019-04-04T16:25:39.021Z,26.93
2019-04-04T16:28:06.992Z,24.95
2019-04-04T16:30:34.859Z,27.07
2019-04-04T16:33:02.769Z,25.88
2019-04-04T16:35:30.682Z,25.20
2019-04-04T16:37:58.594Z,23.50
2019-04-04T16:40:26.495Z,26.30
2019-04-04T16:42:54.391Z,26.60
2019-04-04T16:45:22.344Z,28.45
2019-04-04T16:47:50.320Z,26.23
2019-04-04T16:50:18.227Z,29.02
2019-04-04T16:52:46.133Z,28.87
2019-04-04T16:55:14.112Z,27.75
2019-04-04T16:57:43.429Z,28.65
2019-04-04T17:00:12.460Z,28.73
2019-04-04T17:02:40.385Z,30.97
2019-04-04T17:05:10.774Z,30.50
2019-04-04T17:07:38.028Z,26.75
2019-04-04T17:10:06.246Z,38.85
2019-04-04T17:12:34.102Z,34.65
2019-04-04T17:15:02.053Z,30.25
2019-04-04T17:17:30.055Z,28.98
2019-04-04T17:19:58.071Z,30.92
2019-04-04T17:22:25.971Z,30.62
2019-04-04T17:24:53.936Z,29.40
2019-04-04T17:27:21.853Z,27.87
2019-04-04T17:29:49.828Z,31.10
2019-04-04T17:32:17.941Z,27.32
2019-04-04T17:34:46.574Z,26.57
2019-04-04T17:37:15.362Z,30.65
2019-04-04T17:39:44.296Z,28.55
2019-04-04T17:42:27.011Z,31.33
2019-04-04T17:44:45.489Z,28.50
2019-04-04T17:47:13.604Z,32.88
2019-04-04T17:49:43.265Z,29.23
2019-04-04T17:52:11.642Z,30.72
2019-04-04T17:54:39.700Z,30.52
2019-04-04T17:57:08.707Z,32.20
2019-04-04T17:59:36.712Z,31.15
2019-04-04T18:02:05.018Z,33.00
2019-04-04T18:04:34.750Z,35.68
2019-04-04T18:07:02.562Z,32.75
2019-04-04T18:09:32.287Z,46.10
2019-04-04T18:12:00.556Z,43.52
2019-04-04T18:14:28.916Z,45.17
2019-04-04T18:16:57.107Z,32.73
2019-04-04T18:19:25.131Z,31.02
2019-04-04T18:21:53.079Z,30.75
2019-04-04T18:24:21.010Z,30.95
2019-04-04T18:26:48.936Z,28.42
2019-04-04T18:29:16.890Z,30.02
2019-04-04T18:31:46.716Z,32.93
2019-04-04T18:34:15.500Z,28.77
2019-04-04T18:36:43.740Z,28.00
2019-04-04T18:39:13.338Z,27.95
2019-04-04T18:41:42.150Z,28.32
2019-04-04T18:44:10.215Z,31.05
2019-04-04T18:46:38.160Z,30.15
2019-04-04T18:49:08.005Z,33.13
2019-04-04T18:51:39.126Z,33.63
2019-04-04T18:54:07.704Z,31.23
2019-04-04T18:56:35.607Z,30.68
2019-04-04T18:59:03.652Z,32.58
2019-04-04T19:01:33.620Z,29.75
2019-04-04T19:04:03.624Z,29.42
2019-04-04T19:06:32.066Z,30.37
2019-04-04T19:09:13.988Z,30.23
2019-04-04T19:11:31.884Z,30.97
2019-04-04T19:14:00.580Z,31.70
2019-04-04T19:16:30.802Z,32.17
2019-04-04T19:18:58.794Z,31.70
2019-04-04T19:21:26.768Z,31.35
2019-04-04T19:23:56.462Z,29.02
2019-04-04T19:26:24.561Z,34.53
2019-04-04T19:28:52.574Z,32.73
2019-04-04T19:31:20.615Z,33.58
2019-04-04T19:33:50.391Z,33.28
2019-04-04T19:36:18.841Z,31.62
2019-04-04T19:38:48.045Z,31.52
2019-04-04T19:41:16.231Z,29.52
2019-04-04T19:43:44.174Z,31.07
2019-04-04T19:46:12.902Z,31.57
2019-04-04T19:48:42.046Z,32.05
2019-04-04T19:51:10.071Z,29.85
2019-04-04T19:53:38.019Z,32.28
2019-04-04T19:56:06.077Z,32.93
2019-04-04T19:58:34.329Z,35.48
2019-04-04T20:01:02.334Z,33.90
2019-04-04T20:03:30.330Z,35.55
2019-04-04T20:05:58.756Z,40.83
2019-04-04T20:08:26.735Z,34.13
2019-04-04T20:10:56.954Z,29.60
2019-04-04T20:13:31.202Z,30.52
2019-04-04T20:16:00.257Z,28.92
2019-04-04T20:18:28.239Z,33.25
2019-04-04T20:20:57.812Z,28.62
2019-04-04T20:23:28.746Z,28.27
2019-04-04T20:25:57.147Z,28.62
2019-04-04T20:28:25.694Z,28.17
2019-04-04T20:30:55.186Z,31.77
2019-04-04T20:33:23.556Z,29.92
2019-04-04T20:35:51.486Z,33.60
2019-04-04T20:38:20.161Z,30.85
2019-04-04T20:40:50.179Z,29.67
2019-04-04T20:43:19.909Z,31.05
2019-04-04T20:45:48.213Z,33.10
2019-04-04T20:48:24.047Z,30.50
2019-04-04T20:50:52.000Z,30.70
2019-04-04T20:53:22.131Z,31.25
2019-04-04T20:55:49.620Z,29.32
2019-04-04T20:58:17.659Z,32.83
2019-04-04T21:00:47.375Z,31.60
2019-04-04T21:03:16.690Z,31.30
2019-04-04T21:05:44.578Z,30.88
2019-04-04T21:08:12.512Z,31.62
2019-04-04T21:10:41.661Z,29.10
2019-04-04T21:13:09.631Z,31.15
2019-04-04T21:15:38.543Z,28.92
2019-04-04T21:18:06.519Z,33.10
2019-04-04T21:20:34.445Z,33.30
2019-04-04T21:23:02.445Z,29.75
2019-04-04T21:25:30.423Z,30.60
2019-04-04T21:27:59.427Z,28.75
2019-04-04T21:30:28.834Z,31.42
2019-04-04T21:32:56.763Z,33.67
2019-04-04T21:35:24.890Z,32.23
2019-04-04T21:37:53.317Z,29.40
2019-04-04T21:40:23.270Z,29.80
2019-04-04T21:42:51.158Z,36.77
2019-04-04T21:45:21.034Z,36.90
2019-04-04T21:47:49.061Z,34.23
2019-04-04T21:50:17.072Z,50.28
2019-04-04T21:52:44.947Z,36.75
2019-04-04T21:55:12.887Z,46.25
2019-04-04T21:57:40.748Z,31.48
2019-04-04T22:00:08.873Z,32.17
2019-04-04T22:02:39.123Z,32.53
2019-04-04T22:05:07.269Z,31.90
2019-04-04T22:07:35.585Z,30.37
2019-04-04T22:10:04.423Z,31.48
2019-04-04T22:12:32.355Z,35.40
2019-04-04T22:15:03.503Z,34.40
2019-04-04T22:17:31.423Z,32.35
2019-04-04T22:20:03.127Z,29.95
2019-04-04T22:22:31.078Z,28.85
2019-04-04T22:24:58.950Z,30.35
2019-04-04T22:27:28.172Z,32.40
2019-04-04T22:29:56.074Z,34.80
2019-04-04T22:32:23.984Z,32.17
2019-04-04T22:34:51.909Z,34.73
2019-04-04T22:37:20.001Z,34.03
2019-04-04T22:39:47.898Z,31.90
2019-04-04T22:42:15.908Z,31.75
2019-04-04T22:44:45.826Z,32.53
2019-04-04T22:47:13.854Z,32.38
2019-04-04T22:49:41.746Z,29.85
2019-04-04T22:52:09.790Z,31.17
2019-04-04T22:54:37.718Z,30.75
2019-04-04T22:57:05.742Z,31.25
2019-04-04T22:59:33.700Z,31.42
2019-04-04T23:02:02.110Z,33.55
2019-04-04T23:04:32.890Z,34.53
2019-04-04T23:07:00.854Z,32.15
2019-04-04T23:09:30.369Z,31.77
2019-04-04T23:11:58.752Z,33.00
2019-04-04T23:14:33.290Z,32.20
2019-04-04T23:17:03.119Z,31.23
2019-04-04T23:19:33.401Z,29.42
2019-04-04T23:22:01.328Z,30.82
2019-04-04T23:24:29.678Z,33.40
2019-04-04T23:26:57.597Z,33.02
2019-04-04T23:29:25.525Z,32.10
2019-04-04T23:31:53.507Z,30.45
2019-04-04T23:34:21.426Z,29.63
2019-04-04T23:36:50.170Z,31.20
2019-04-04T23:39:19.463Z,30.52
2019-04-04T23:41:47.413Z,31.02
2019-04-04T23:44:15.788Z,31.95
2019-04-04T23:46:43.710Z,30.88
2019-04-04T23:49:11.630Z,34.85
2019-04-04T23:51:40.609Z,32.90
2019-04-04T23:54:10.611Z,34.18
2019-04-04T23:56:39.514Z,31.55
2019-04-04T23:59:07.462Z,30.08
